Time;durP1;ratioP1;P1;durP2;ratioP2;P2;SDS_P1;SDS_P2;PMS_P1;PMS_P2;Temp;Humidity;BMP_temperature;BMP_pressure;BME280_temperature;BME280_humidity;BME280_pressure;Samples;Min_cycle;Max_cycle;Signal;HPM_P1;HPM_P2
2023/07/21 00:01:39;;;;;;;2.43;1.83;;;17.40;94.60;;;;;;5045627;28;20276;-87
2023/07/21 00:04:05;;;;;;;5.80;1.83;;;17.40;95.00;;;;;;5043680;28;20254;-85
2023/07/21 00:06:30;;;;;;;3.40;2.00;;;17.30;95.70;;;;;;5044387;28;20753;-85
2023/07/21 00:08:56;;;;;;;3.63;1.80;;;17.30;96.30;;;;;;5045776;28;20653;-86
2023/07/21 00:11:21;;;;;;;2.63;1.70;;;17.30;96.80;;;;;;5031777;28;20192;-86
2023/07/21 00:13:47;;;;;;;3.13;1.87;;;17.30;96.70;;;;;;5042382;28;20261;-84
2023/07/21 00:16:12;;;;;;;3.13;1.50;;;17.30;97.00;;;;;;5047260;28;20193;-85
2023/07/21 00:18:40;;;;;;;2.50;1.90;;;17.50;97.40;;;;;;5040644;28;20638;-87
2023/07/21 00:21:06;;;;;;;4.67;2.10;;;17.20;97.30;;;;;;5050510;28;20250;-86
2023/07/21 00:23:31;;;;;;;5.10;1.70;;;17.10;97.50;;;;;;5040783;28;21502;-86
2023/07/21 00:25:57;;;;;;;1.40;1.30;;;17.00;98.10;;;;;;5041477;28;20204;-85
2023/07/21 00:28:25;;;;;;;3.30;1.60;;;17.00;98.40;;;;;;5041609;28;20288;-87
2023/07/21 00:30:51;;;;;;;4.37;1.57;;;16.90;98.80;;;;;;5041129;28;20492;-86
2023/07/21 00:33:16;;;;;;;5.00;1.80;;;16.80;99.20;;;;;;5038744;28;20505;-86
2023/07/21 00:35:42;;;;;;;4.73;1.83;;;16.80;99.70;;;;;;5041625;28;21066;-86
2023/07/21 00:38:08;;;;;;;2.90;1.93;;;16.90;99.90;;;;;;5039146;28;20872;-85
2023/07/21 00:40:37;;;;;;;3.40;1.80;;;16.80;99.90;;;;;;5040729;28;20518;-86
2023/07/21 00:43:03;;;;;;;3.20;1.93;;;16.70;99.90;;;;;;5039624;28;20177;-86
2023/07/21 00:45:33;;;;;;;7.93;2.17;;;16.70;99.90;;;;;;5041698;28;20451;-85
2023/07/21 00:48:01;;;;;;;5.03;2.13;;;16.60;99.90;;;;;;5039278;28;20439;-85
2023/07/21 00:50:26;;;;;;;2.03;1.37;;;16.50;99.90;;;;;;5042568;28;20435;-86
2023/07/21 00:52:52;;;;;;;1.97;1.77;;;16.40;99.90;;;;;;5057244;28;20429;-84
2023/07/21 00:55:18;;;;;;;5.83;2.50;;;16.40;99.90;;;;;;5042840;28;20201;-86
2023/07/21 00:57:44;;;;;;;2.43;1.90;;;16.30;99.90;;;;;;5042919;28;20181;-85
2023/07/21 01:00:13;;;;;;;3.67;1.57;;;16.40;99.90;;;;;;5058738;28;20427;-86
2023/07/21 01:02:39;;;;;;;6.13;2.30;;;16.40;99.90;;;;;;5042166;28;20276;-86
2023/07/21 01:05:06;;;;;;;8.37;2.00;;;16.30;99.90;;;;;;5043711;28;20456;-86
2023/07/21 01:07:34;;;;;;;3.27;2.00;;;16.30;99.90;;;;;;5042441;28;20526;-86
2023/07/21 01:10:00;;;;;;;4.20;1.90;;;16.20;99.90;;;;;;5042350;28;20431;-86
2023/07/21 01:12:26;;;;;;;2.50;1.50;;;16.20;99.90;;;;;;5045058;28;20482;-86
2023/07/21 01:14:52;;;;;;;1.67;1.40;;;16.10;99.90;;;;;;5041057;28;20862;-85
2023/07/21 01:17:19;;;;;;;4.13;2.10;;;16.10;99.90;;;;;;5042453;28;20187;-84
2023/07/21 01:19:48;;;;;;;5.90;1.67;;;16.00;99.90;;;;;;5043757;28;20427;-86
2023/07/21 01:22:25;;;;;;;3.17;2.10;;;16.10;99.90;;;;;;5045139;28;20461;-86
2023/07/21 01:24:51;;;;;;;5.13;1.90;;;16.00;99.90;;;;;;5041940;28;21001;-85
2023/07/21 01:27:21;;;;;;;2.43;1.50;;;16.10;99.90;;;;;;5043501;28;20459;-87
2023/07/21 01:29:48;;;;;;;4.27;2.43;;;16.10;99.90;;;;;;5042668;28;20177;-86
2023/07/21 01:32:17;;;;;;;4.37;2.10;;;16.00;99.90;;;;;;5043106;28;20465;-86
2023/07/21 01:34:44;;;;;;;4.73;1.40;;;15.90;99.90;;;;;;5040684;28;20545;-85
2023/07/21 01:37:11;;;;;;;4.73;2.07;;;15.90;99.90;;;;;;5043833;28;21180;-86
2023/07/21 01:39:38;;;;;;;2.80;1.70;;;15.80;99.90;;;;;;5039311;28;20536;-86
2023/07/21 01:42:08;;;;;;;2.80;1.70;;;15.80;99.90;;;;;;5044185;28;20465;-86
2023/07/21 01:44:34;;;;;;;2.73;1.87;;;15.70;99.90;;;;;;5044145;28;20486;-87
2023/07/21 01:47:00;;;;;;;4.70;2.43;;;15.70;99.90;;;;;;5042988;28;20886;-86
2023/07/21 01:49:25;;;;;;;2.70;1.90;;;15.70;99.90;;;;;;5043760;28;20423;-87
2023/07/21 01:51:55;;;;;;;4.53;2.00;;;15.80;99.90;;;;;;5040533;28;20223;-87
2023/07/21 01:54:34;;;;;;;4.90;1.70;;;15.80;99.90;;;;;;5041059;28;20287;-86
2023/07/21 01:57:05;;;;;;;4.07;2.23;;;15.80;99.90;;;;;;5040315;28;20427;-85
2023/07/21 01:59:31;;;;;;;2.80;1.90;;;15.80;99.90;;;;;;5042859;28;21394;-85
2023/07/21 02:01:57;;;;;;;4.33;2.07;;;15.80;99.90;;;;;;5044617;28;20422;-85
2023/07/21 02:04:23;;;;;;;5.93;1.90;;;15.80;99.90;;;;;;5041934;28;20632;-87
2023/07/21 02:06:50;;;;;;;7.37;2.10;;;15.80;99.90;;;;;;5037353;28;20511;-86
2023/07/21 02:09:16;;;;;;;2.90;2.07;;;15.70;99.90;;;;;;5045211;28;20438;-86
2023/07/21 02:11:43;;;;;;;4.83;1.43;;;15.70;99.90;;;;;;5046852;28;20431;-87
2023/07/21 02:14:09;;;;;;;2.97;1.60;;;15.60;99.90;;;;;;5047133;28;20534;-85
2023/07/21 02:16:37;;;;;;;6.53;1.47;;;15.60;99.90;;;;;;5047682;28;20902;-85
2023/07/21 02:19:05;;;;;;;2.33;1.83;;;15.60;99.90;;;;;;5042799;28;20430;-85
2023/07/21 02:21:33;;;;;;;2.60;1.60;;;15.40;99.90;;;;;;5046453;28;20463;-86
2023/07/21 02:23:59;;;;;;;2.43;1.50;;;15.30;99.90;;;;;;5041588;28;20454;-87
2023/07/21 02:26:24;;;;;;;6.03;2.07;;;15.30;99.90;;;;;;5045896;28;20435;-85
2023/07/21 02:28:50;;;;;;;2.80;1.57;;;15.30;99.90;;;;;;5046018;28;20472;-86
2023/07/21 02:31:15;;;;;;;3.83;2.17;;;15.20;99.90;;;;;;5044855;28;20216;-86
2023/07/21 02:33:41;;;;;;;2.43;1.63;;;15.90;99.90;;;;;;5044433;28;20177;-86
2023/07/21 02:36:07;;;;;;;4.37;1.97;;;15.20;99.90;;;;;;5059196;28;20463;-86
2023/07/21 02:38:33;;;;;;;2.37;1.67;;;15.30;99.90;;;;;;5045363;28;20601;-85
2023/07/21 02:41:03;;;;;;;2.13;1.50;;;15.30;99.90;;;;;;5045837;28;20446;-86
2023/07/21 02:43:29;;;;;;;3.90;1.50;;;15.30;99.90;;;;;;5046686;28;20264;-86
2023/07/21 02:45:55;;;;;;;4.17;2.10;;;15.30;99.90;;;;;;5045988;28;21316;-86
2023/07/21 02:48:22;;;;;;;6.53;2.07;;;15.40;99.90;;;;;;5043032;28;20432;-85
2023/07/21 02:50:48;;;;;;;1.87;1.60;;;15.40;99.90;;;;;;5042170;28;20181;-86
2023/07/21 02:53:15;;;;;;;4.50;1.77;;;15.40;99.90;;;;;;5045747;28;20459;-86
2023/07/21 02:55:41;;;;;;;3.00;1.80;;;15.40;99.90;;;;;;5043872;28;20518;-85
2023/07/21 02:58:07;;;;;;;3.40;2.03;;;15.40;99.90;;;;;;5041588;28;20865;-85
2023/07/21 03:00:33;;;;;;;4.40;2.27;;;15.40;99.90;;;;;;5046624;28;20539;-86
2023/07/21 03:02:58;;;;;;;3.60;1.70;;;15.40;99.90;;;;;;5038976;28;21081;-87
2023/07/21 03:05:24;;;;;;;3.50;1.70;;;15.30;99.90;;;;;;5043338;28;20201;-86
2023/07/21 03:07:50;;;;;;;3.20;1.73;;;15.30;99.90;;;;;;5039738;28;20577;-86
2023/07/21 03:10:16;;;;;;;2.00;1.50;;;15.20;99.90;;;;;;5045432;28;20192;-87
2023/07/21 03:12:42;;;;;;;2.30;1.70;;;15.10;99.90;;;;;;5044927;28;20184;-86
2023/07/21 03:15:08;;;;;;;2.17;1.87;;;15.20;99.90;;;;;;5044931;28;20466;-85
2023/07/21 03:17:34;;;;;;;2.20;1.60;;;15.30;99.90;;;;;;5036514;28;20204;-86
2023/07/21 03:19:59;;;;;;;4.37;1.90;;;15.40;99.90;;;;;;5043378;28;20495;-86
2023/07/21 03:22:25;;;;;;;3.27;1.60;;;15.50;99.90;;;;;;5045680;28;20181;-85
2023/07/21 03:24:50;;;;;;;2.40;1.23;;;15.40;99.90;;;;;;5045766;28;20624;-85
2023/07/21 03:27:16;;;;;;;2.17;1.57;;;15.40;99.90;;;;;;5042526;28;20615;-86
2023/07/21 03:29:42;;;;;;;2.07;1.30;;;15.50;99.90;;;;;;5046902;28;20177;-86
2023/07/21 03:32:08;;;;;;;1.63;1.43;;;15.50;99.90;;;;;;5043326;28;20200;-86
2023/07/21 03:34:35;;;;;;;3.40;2.10;;;15.60;99.90;;;;;;5050103;28;20451;-86
2023/07/21 03:37:08;;;;;;;2.67;2.07;;;15.70;99.90;;;;;;5044071;28;20549;-86
2023/07/21 03:39:33;;;;;;;1.87;1.70;;;15.70;99.90;;;;;;5041193;28;20493;-85
2023/07/21 03:41:59;;;;;;;2.53;1.70;;;15.80;99.90;;;;;;5044918;28;20435;-86
2023/07/21 03:44:24;;;;;;;2.80;1.70;;;15.90;99.90;;;;;;5040006;28;20205;-84
2023/07/21 03:46:50;;;;;;;4.00;2.13;;;15.80;99.90;;;;;;5043209;28;20193;-86
2023/07/21 03:49:15;;;;;;;2.67;1.67;;;15.80;99.90;;;;;;5044955;28;20183;-85
2023/07/21 03:51:41;;;;;;;4.70;2.13;;;15.70;99.90;;;;;;5046420;28;20181;-86
2023/07/21 03:54:07;;;;;;;6.47;2.77;;;15.80;99.90;;;;;;5043299;28;20209;-85
2023/07/21 03:56:32;;;;;;;4.23;1.97;;;15.80;99.90;;;;;;5043309;28;20720;-85
2023/07/21 03:58:58;;;;;;;3.03;2.10;;;15.80;99.90;;;;;;5042648;28;20442;-85
2023/07/21 04:01:24;;;;;;;3.40;1.60;;;15.90;99.90;;;;;;5032550;28;20260;-85
2023/07/21 04:03:50;;;;;;;2.30;1.70;;;16.10;99.90;;;;;;5042039;28;20184;-86
2023/07/21 04:06:17;;;;;;;1.87;1.37;;;16.20;99.90;;;;;;5044076;28;20431;-86
2023/07/21 04:08:43;;;;;;;3.00;1.70;;;16.30;99.90;;;;;;5043762;28;20435;-85
2023/07/21 04:11:09;;;;;;;3.07;1.60;;;16.50;99.90;;;;;;5041357;28;20431;-86
2023/07/21 04:13:34;;;;;;;3.80;1.90;;;16.60;99.90;;;;;;5040588;28;20196;-86
2023/07/21 04:16:00;;;;;;;2.50;1.80;;;16.50;99.90;;;;;;5042130;28;20259;-86
2023/07/21 04:18:25;;;;;;;5.40;3.17;;;16.50;99.90;;;;;;5043419;28;20203;-85
2023/07/21 04:20:51;;;;;;;3.17;2.47;;;16.20;99.90;;;;;;5046531;28;20181;-85
2023/07/21 04:23:18;;;;;;;3.73;2.60;;;16.10;99.90;;;;;;5042694;28;20229;-86
2023/07/21 04:25:45;;;;;;;3.13;2.50;;;16.10;99.90;;;;;;5041785;28;20197;-85
2023/07/21 04:28:11;;;;;;;5.20;2.70;;;16.20;99.90;;;;;;5035845;28;20513;-85
2023/07/21 04:30:36;;;;;;;2.70;1.90;;;16.50;99.90;;;;;;5038833;28;21252;-85
2023/07/21 04:33:02;;;;;;;3.33;1.73;;;16.80;99.90;;;;;;5039837;28;20238;-85
2023/07/21 04:35:28;;;;;;;4.10;2.00;;;16.90;99.90;;;;;;5039089;28;20204;-86
2023/07/21 04:37:53;;;;;;;3.87;2.00;;;17.00;99.90;;;;;;5038003;28;21005;-86
2023/07/21 04:40:20;;;;;;;2.40;1.93;;;17.00;99.90;;;;;;5042160;28;20189;-86
2023/07/21 04:42:46;;;;;;;2.37;1.50;;;17.00;99.90;;;;;;5041056;28;20193;-86
2023/07/21 04:45:11;;;;;;;6.00;2.50;;;16.90;99.90;;;;;;5042662;28;21104;-86
2023/07/21 04:47:39;;;;;;;5.00;3.00;;;17.10;99.90;;;;;;5042221;28;20451;-85
2023/07/21 04:50:05;;;;;;;4.30;1.83;;;17.20;99.90;;;;;;5034957;28;20562;-87
2023/07/21 04:52:30;;;;;;;5.20;2.30;;;17.20;99.90;;;;;;5036179;28;20730;-85
2023/07/21 04:54:56;;;;;;;3.13;1.97;;;17.40;99.90;;;;;;5038676;28;20458;-86
2023/07/21 04:57:21;;;;;;;4.30;2.17;;;17.50;99.90;;;;;;5041707;28;20191;-86
2023/07/21 04:59:47;;;;;;;3.13;2.23;;;17.70;99.90;;;;;;5037789;28;20207;-86
2023/07/21 05:02:12;;;;;;;2.10;1.83;;;17.80;99.90;;;;;;5037928;28;20189;-87
2023/07/21 05:04:38;;;;;;;4.27;2.97;;;18.00;99.90;;;;;;5042381;28;20243;-85
2023/07/21 05:07:05;;;;;;;4.27;2.63;;;18.10;99.90;;;;;;5037867;28;20600;-85
2023/07/21 05:09:30;;;;;;;5.00;2.80;;;18.10;99.90;;;;;;5044912;28;20400;-85
2023/07/21 05:11:56;;;;;;;5.13;2.30;;;18.00;99.90;;;;;;5044367;28;20938;-86
2023/07/21 05:14:22;;;;;;;4.20;2.90;;;18.00;99.90;;;;;;5044512;28;20327;-85
2023/07/21 05:16:49;;;;;;;4.30;2.63;;;18.10;99.90;;;;;;5053768;28;20587;-85
2023/07/21 05:19:14;;;;;;;4.60;2.07;;;18.00;99.90;;;;;;5044675;28;20444;-86
2023/07/21 05:21:40;;;;;;;2.83;2.10;;;17.80;99.90;;;;;;5044322;28;20443;-84
2023/07/21 05:24:05;;;;;;;2.10;1.77;;;17.90;99.90;;;;;;5040783;28;20286;-85
2023/07/21 05:26:35;;;;;;;3.50;2.13;;;18.30;99.90;;;;;;5034802;28;20272;-85
2023/07/21 05:29:01;;;;;;;4.00;3.10;;;18.20;99.90;;;;;;5037228;28;20580;-85
2023/07/21 05:31:28;;;;;;;3.87;2.43;;;18.10;99.90;;;;;;5036943;28;20458;-84
2023/07/21 05:33:53;;;;;;;8.87;3.20;;;18.00;99.90;;;;;;5021226;28;20445;-86
2023/07/21 05:36:19;;;;;;;3.20;2.73;;;17.80;99.90;;;;;;5021174;28;21290;-86
2023/07/21 05:38:44;;;;;;;4.70;2.80;;;17.70;99.90;;;;;;5035443;28;20185;-85
2023/07/21 05:41:10;;;;;;;3.70;2.80;;;17.60;99.90;;;;;;5036862;28;20184;-86
2023/07/21 05:43:36;;;;;;;5.47;3.07;;;17.60;99.90;;;;;;5037700;28;20666;-85
2023/07/21 05:46:07;;;;;;;6.20;3.27;;;17.80;99.90;;;;;;5038827;28;20631;-84
2023/07/21 05:48:33;;;;;;;5.50;3.03;;;18.10;99.90;;;;;;5035928;28;20463;-84
2023/07/21 05:50:58;;;;;;;3.80;2.90;;;18.40;99.90;;;;;;5038202;28;20566;-86
2023/07/21 05:53:24;;;;;;;6.83;2.53;;;18.60;99.90;;;;;;5040939;28;21280;-85
2023/07/21 05:55:53;;;;;;;4.37;3.00;;;18.60;99.90;;;;;;5033705;28;20249;-86
2023/07/21 05:58:18;;;;;;;3.37;2.83;;;18.70;99.90;;;;;;5038126;28;20434;-84
2023/07/21 06:00:45;;;;;;;4.00;2.60;;;19.10;99.90;;;;;;5040578;28;21134;-86
2023/07/21 06:03:11;;;;;;;6.40;3.13;;;19.60;99.90;;;;;;5038812;28;20184;-85
2023/07/21 06:05:36;;;;;;;5.37;3.43;;;20.20;99.90;;;;;;5036318;28;20447;-86
2023/07/21 06:08:05;;;;;;;3.87;2.73;;;20.60;99.90;;;;;;5040960;28;20196;-85
2023/07/21 06:10:31;;;;;;;2.90;2.47;;;20.80;99.90;;;;;;5040345;28;20188;-86
2023/07/21 06:12:57;;;;;;;4.10;2.50;;;21.20;99.90;;;;;;5039656;28;20489;-85
2023/07/21 06:15:26;;;;;;;5.70;2.43;;;21.40;99.90;;;;;;5035302;28;20509;-84
2023/07/21 06:17:52;;;;;;;2.70;2.10;;;21.40;99.90;;;;;;5037946;28;20423;-85
2023/07/21 06:20:20;;;;;;;3.23;2.10;;;21.20;98.90;;;;;;5051866;28;20436;-85
2023/07/21 06:22:47;;;;;;;2.50;2.07;;;20.80;99.10;;;;;;5043203;28;20935;-84
2023/07/21 06:25:12;;;;;;;3.23;1.80;;;20.40;98.40;;;;;;5038730;28;20450;-85
2023/07/21 06:27:38;;;;;;;3.80;2.37;;;20.30;98.70;;;;;;5038358;28;20435;-86
2023/07/21 06:30:03;;;;;;;2.63;2.00;;;20.00;98.00;;;;;;5038225;28;20824;-86
2023/07/21 06:32:29;;;;;;;3.40;2.20;;;20.60;98.90;;;;;;5034370;28;20185;-85
2023/07/21 06:34:54;;;;;;;7.60;2.40;;;20.90;98.40;;;;;;5036168;28;20233;-84
2023/07/21 06:37:20;;;;;;;3.03;2.33;;;21.10;97.30;;;;;;5038254;28;20185;-85
2023/07/21 06:39:48;;;;;;;3.07;1.77;;;21.50;95.70;;;;;;5053196;28;20260;-85
2023/07/21 06:42:14;;;;;;;3.07;2.10;;;22.20;95.80;;;;;;5040606;28;20589;-84
2023/07/21 06:44:40;;;;;;;4.40;2.37;;;22.70;94.10;;;;;;5039092;28;20514;-86
2023/07/21 06:47:05;;;;;;;16.70;3.57;;;23.60;93.70;;;;;;5036445;28;20184;-86
2023/07/21 06:49:31;;;;;;;4.97;2.40;;;24.80;90.80;;;;;;5039893;28;20188;-85
2023/07/21 06:51:57;;;;;;;6.23;2.97;;;24.80;84.80;;;;;;5036167;28;20256;-85
2023/07/21 06:54:23;;;;;;;5.03;2.50;;;24.50;85.40;;;;;;5038015;28;20497;-86
2023/07/21 06:56:49;;;;;;;7.10;2.90;;;24.40;85.10;;;;;;5038206;28;21972;-85
2023/07/21 06:59:15;;;;;;;10.53;2.40;;;24.00;84.70;;;;;;5039818;28;20432;-86
2023/07/21 07:01:41;;;;;;;5.33;2.33;;;23.60;87.30;;;;;;5035431;28;20181;-86
2023/07/21 07:04:06;;;;;;;5.27;2.40;;;23.30;86.90;;;;;;5032785;28;20193;-86
2023/07/21 07:06:32;;;;;;;4.07;2.33;;;23.00;88.60;;;;;;5040449;28;20431;-86
2023/07/21 07:08:57;;;;;;;5.70;2.40;;;22.90;88.70;;;;;;5040616;28;20235;-85
2023/07/21 07:11:23;;;;;;;4.67;2.17;;;22.50;88.70;;;;;;5041615;28;20185;-85
2023/07/21 07:13:49;;;;;;;3.70;2.33;;;22.40;89.80;;;;;;5041332;28;20234;-84
2023/07/21 07:16:14;;;;;;;8.83;2.63;;;22.40;90.20;;;;;;5035842;28;20483;-85
2023/07/21 07:18:40;;;;;;;75.57;8.60;;;22.20;89.80;;;;;;5041189;28;20177;-84
2023/07/21 07:21:05;;;;;;;78.40;10.03;;;22.20;89.40;;;;;;5045091;28;20732;-86
2023/07/21 07:23:31;;;;;;;20.90;3.90;;;22.00;90.20;;;;;;5044609;28;20193;-84
2023/07/21 07:25:56;;;;;;;3.77;2.37;;;21.60;89.30;;;;;;5042585;28;20240;-81
2023/07/21 07:28:22;;;;;;;34.57;5.20;;;21.60;90.50;;;;;;5041269;28;20193;-85
2023/07/21 07:30:48;;;;;;;14.50;2.87;;;21.70;91.20;;;;;;5040899;28;20277;-85
2023/07/21 07:33:15;;;;;;;6.23;2.87;;;21.70;90.30;;;;;;5037849;28;20450;-85
2023/07/21 07:35:50;;;;;;;12.17;2.70;;;21.70;91.00;;;;;;5046717;28;20558;-84
2023/07/21 07:38:23;;;;;;;7.10;3.00;;;21.80;91.10;;;;;;5046693;28;20424;-85
2023/07/21 07:40:49;;;;;;;32.00;5.60;;;22.10;90.60;;;;;;5046617;28;20923;-83
2023/07/21 07:43:15;;;;;;;19.67;2.90;;;22.50;90.30;;;;;;5040012;28;20438;-82
2023/07/21 07:45:41;;;;;;;4.50;2.43;;;22.80;87.50;;;;;;5038486;28;20471;-83
2023/07/21 07:48:09;;;;;;;12.23;3.10;;;23.20;88.20;;;;;;5034968;28;20592;-86
2023/07/21 07:50:39;;;;;;;26.27;4.00;;;24.10;86.10;;;;;;5046477;28;20212;-86
2023/07/21 07:53:06;;;;;;;11.60;4.20;;;24.70;83.50;;;;;;5042857;28;20444;-84
2023/07/21 07:55:36;;;;;;;10.73;2.40;;;24.50;82.20;;;;;;5045743;28;20676;-84
2023/07/21 07:58:03;;;;;;;4.73;2.20;;;24.30;82.20;;;;;;5043500;28;20521;-84
2023/07/21 08:00:29;;;;;;;24.93;4.53;;;22.90;75.80;;;;;;5044614;28;20911;-86
2023/07/21 08:02:55;;;;;;;4.37;2.10;;;22.70;80.70;;;;;;5040256;28;20593;-85
2023/07/21 08:05:21;;;;;;;13.83;3.53;;;22.30;80.50;;;;;;5042289;28;20207;-85
2023/07/21 08:07:48;;;;;;;24.40;4.23;;;22.10;81.80;;;;;;5038939;28;21446;-84
2023/07/21 08:10:14;;;;;;;6.60;2.40;;;22.50;85.90;;;;;;5047166;28;20886;-85
2023/07/21 08:12:39;;;;;;;8.17;2.50;;;22.80;84.20;;;;;;5044865;28;20443;-85
2023/07/21 08:15:05;;;;;;;4.77;2.37;;;23.10;86.00;;;;;;5041190;28;20216;-83
2023/07/21 08:17:31;;;;;;;2.77;1.60;;;23.10;83.90;;;;;;5042662;28;20201;-85
2023/07/21 08:19:56;;;;;;;38.63;4.83;;;22.50;84.90;;;;;;5040462;28;20598;-83
2023/07/21 08:22:22;;;;;;;28.27;4.83;;;22.40;86.50;;;;;;5041828;28;20670;-83
2023/07/21 08:24:47;;;;;;;13.17;3.90;;;22.10;86.40;;;;;;5033208;28;20209;-83
2023/07/21 08:27:13;;;;;;;43.63;5.10;;;21.70;86.90;;;;;;5044642;28;20173;-82
2023/07/21 08:29:38;;;;;;;24.77;4.10;;;21.70;88.10;;;;;;5044343;28;20192;-86
2023/07/21 08:32:04;;;;;;;12.27;3.33;;;21.70;87.50;;;;;;5042258;28;20273;-84
2023/07/21 08:34:30;;;;;;;6.57;3.33;;;21.70;88.90;;;;;;5038293;28;20197;-85
2023/07/21 08:36:55;;;;;;;4.50;2.37;;;21.90;89.00;;;;;;5042610;28;20471;-84
2023/07/21 08:39:21;;;;;;;2.93;2.30;;;21.80;88.80;;;;;;5041400;28;20189;-85
2023/07/21 08:41:49;;;;;;;7.93;2.00;;;21.90;90.10;;;;;;5039670;28;20195;-85
2023/07/21 08:44:16;;;;;;;4.17;2.30;;;21.70;90.20;;;;;;5037664;28;20607;-85
2023/07/21 08:46:42;;;;;;;3.27;2.37;;;21.90;91.10;;;;;;5035832;28;20427;-86
2023/07/21 08:49:08;;;;;;;4.80;2.30;;;21.80;90.50;;;;;;5036737;28;20520;-85
2023/07/21 08:51:35;;;;;;;2.37;2.10;;;21.90;91.00;;;;;;5036754;28;20192;-85
2023/07/21 08:54:01;;;;;;;5.00;2.00;;;22.60;89.60;;;;;;5036720;28;20185;-85
2023/07/21 08:56:27;;;;;;;30.33;6.17;;;22.60;89.30;;;;;;5034444;28;20892;-83
2023/07/21 08:58:53;;;;;;;10.53;2.97;;;22.50;89.90;;;;;;5036913;28;20176;-84
2023/07/21 09:01:18;;;;;;;21.17;4.40;;;22.60;89.40;;;;;;5034813;28;20915;-86
2023/07/21 09:03:46;;;;;;;11.00;3.50;;;22.50;89.10;;;;;;5027357;28;20276;-83
2023/07/21 09:06:13;;;;;;;6.53;3.00;;;22.50;89.80;;;;;;5034955;28;20283;-85
2023/07/21 09:08:38;;;;;;;4.30;2.30;;;22.70;88.80;;;;;;5036267;28;21300;-85
2023/07/21 09:11:04;;;;;;;7.57;2.07;;;22.90;89.80;;;;;;5030380;28;20432;-84
2023/07/21 09:13:31;;;;;;;8.17;3.07;;;23.50;87.70;;;;;;5039375;28;20212;-85
2023/07/21 09:16:00;;;;;;;3.33;2.53;;;23.80;87.40;;;;;;5046744;28;20451;-86
2023/07/21 09:18:30;;;;;;;6.43;2.50;;;24.00;85.60;;;;;;5036947;28;20801;-85
2023/07/21 09:20:56;;;;;;;5.50;2.30;;;23.70;84.00;;;;;;5040671;28;20487;-84
2023/07/21 09:23:22;;;;;;;4.80;1.93;;;24.40;83.40;;;;;;5041254;28;20423;-85
2023/07/21 09:25:49;;;;;;;3.87;2.30;;;25.50;80.70;;;;;;5039784;28;21488;-83
2023/07/21 09:28:15;;;;;;;6.50;2.60;;;;;;;;;;5038646;28;20661;-84
2023/07/21 09:30:52;;;;;;;11.27;3.17;;;25.80;76.50;;;;;;5042129;28;20451;-86
2023/07/21 09:33:23;;;;;;;5.00;2.30;;;26.00;74.80;;;;;;5038308;28;21129;-86
2023/07/21 09:35:49;;;;;;;6.70;3.07;;;26.20;73.90;;;;;;5040983;28;20526;-85
2023/07/21 09:38:15;;;;;;;4.70;2.00;;;25.80;76.30;;;;;;5033220;28;20448;-86
2023/07/21 09:40:43;;;;;;;5.43;2.90;;;25.40;75.70;;;;;;5041284;28;20435;-85
2023/07/21 09:43:09;;;;;;;4.90;2.47;;;25.30;76.90;;;;;;5043711;28;20177;-85
2023/07/21 09:45:37;;;;;;;4.80;2.53;;;25.00;78.20;;;;;;5039643;28;21490;-84
2023/07/21 09:48:03;;;;;;;5.63;2.40;;;25.10;76.80;;;;;;5039697;28;20380;-84
2023/07/21 09:50:30;;;;;;;5.60;2.30;;;25.10;77.50;;;;;;5039189;28;20496;-84
2023/07/21 09:52:55;;;;;;;4.63;2.73;;;25.40;77.70;;;;;;5037941;28;20227;-85
2023/07/21 09:55:22;;;;;;;4.90;2.37;;;25.10;73.90;;;;;;5043239;28;20463;-86
2023/07/21 09:57:49;;;;;;;3.23;2.10;;;25.10;73.70;;;;;;5041910;28;20231;-84
2023/07/21 10:00:17;;;;;;;3.27;2.10;;;25.40;73.20;;;;;;5038382;28;20472;-85
2023/07/21 10:02:47;;;;;;;5.90;2.43;;;25.70;71.30;;;;;;5040357;28;20435;-87
2023/07/21 10:05:16;;;;;;;2.63;2.27;;;25.60;69.70;;;;;;5042158;28;20528;-86
2023/07/21 10:07:46;;;;;;;39.07;5.93;;;24.50;70.80;;;;;;5038619;28;21076;-86
2023/07/21 10:10:12;;;;;;;8.13;2.60;;;24.50;71.40;;;;;;5039409;28;20597;-86
2023/07/21 10:12:49;;;;;;;6.97;2.93;;;24.50;72.50;;;;;;5039963;28;20446;-85
2023/07/21 10:15:16;;;;;;;3.90;2.20;;;24.90;72.40;;;;;;5031122;28;20539;-86
2023/07/21 10:18:03;;;;;;;2.70;2.27;;;25.00;70.20;;;;;;5041682;28;20559;-86
2023/07/21 10:20:49;;;;;;;3.57;1.97;;;26.00;71.80;;;;;;5039055;28;20478;-85
2023/07/21 10:23:17;;;;;;;5.80;2.23;;;27.50;65.30;;;;;;5037021;28;20441;-85
2023/07/21 10:26:00;;;;;;;4.07;2.80;;;29.10;62.70;;;;;;5041386;28;20467;-86
2023/07/21 10:28:42;;;;;;;4.90;2.60;;;29.30;59.00;;;;;;5040739;28;21023;-83
2023/07/21 10:31:32;;;;;;;2.77;2.53;;;28.80;59.40;;;;;;5056031;28;21247;-85
2023/07/21 10:34:09;;;;;;;3.23;2.30;;;29.20;57.20;;;;;;5034482;28;20478;-85
2023/07/21 10:36:52;;;;;;;7.07;2.80;;;30.20;57.90;;;;;;5037221;28;20520;-87
2023/07/21 10:39:42;;;;;;;6.93;2.97;;;30.10;58.50;;;;;;5037365;28;20441;-85
2023/07/21 10:42:08;;;;;;;12.33;3.37;;;28.40;56.90;;;;;;5037777;28;20462;-86
2023/07/21 10:44:41;;;;;;;5.23;1.73;;;26.70;57.60;;;;;;5041084;28;20465;-86
2023/07/21 10:47:18;;;;;;;3.00;1.87;;;26.00;61.10;;;;;;5037770;28;20468;-85
2023/07/21 10:49:45;;;;;;;7.47;2.40;;;25.80;61.10;;;;;;5037412;28;20505;-86
2023/07/21 10:52:11;;;;;;;2.23;1.80;;;25.80;61.10;;;;;;5035769;28;20433;-86
2023/07/21 10:54:37;;;;;;;3.10;1.97;;;25.80;62.70;;;;;;5039674;28;20468;-86
2023/07/21 10:57:03;;;;;;;3.30;2.47;;;25.60;61.00;;;;;;5039131;28;20217;-87
2023/07/21 10:59:33;;;;;;;2.80;2.27;;;25.90;61.20;;;;;;5037400;28;20445;-86
2023/07/21 11:01:59;;;;;;;4.00;2.17;;;26.10;61.50;;;;;;5039076;28;20447;-85
2023/07/21 11:04:24;;;;;;;5.40;1.97;;;26.00;59.70;;;;;;5043337;28;20465;-85
2023/07/21 11:06:52;;;;;;;2.90;2.20;;;25.90;60.10;;;;;;5039988;28;20931;-86
2023/07/21 11:09:19;;;;;;;2.60;2.00;;;26.50;62.00;;;;;;5039871;28;20304;-87
2023/07/21 11:11:47;;;;;;;3.10;1.97;;;27.20;60.90;;;;;;5038182;28;21291;-86
2023/07/21 11:14:19;;;;;;;3.53;1.93;;;27.30;59.50;;;;;;5038216;28;20465;-84
2023/07/21 11:16:52;;;;;;;3.93;2.07;;;27.00;58.50;;;;;;5035617;28;20476;-86
2023/07/21 11:19:19;;;;;;;4.13;1.93;;;26.40;59.00;;;;;;5049379;28;20804;-85
2023/07/21 11:21:46;;;;;;;2.97;2.40;;;26.10;59.60;;;;;;5033486;28;20924;-86
2023/07/21 11:24:23;;;;;;;5.83;2.43;;;26.40;60.40;;;;;;5028020;28;20465;-86
2023/07/21 11:26:49;;;;;;;5.60;2.50;;;26.50;62.00;;;;;;5036351;28;20456;-85
2023/07/21 11:29:16;;;;;;;3.27;2.33;;;26.90;61.80;;;;;;5035590;28;20438;-87
2023/07/21 11:31:43;;;;;;;7.73;2.83;;;26.30;59.70;;;;;;5039029;28;20968;-89
2023/07/21 11:34:22;;;;;;;7.47;2.63;;;25.80;62.80;;;;;;5032207;28;20463;-87
2023/07/21 11:36:52;;;;;;;2.70;2.00;;;25.70;62.30;;;;;;5032928;28;20457;-85
2023/07/21 11:39:20;;;;;;;6.97;2.40;;;26.20;63.50;;;;;;5030739;28;20442;-84
2023/07/21 11:41:56;;;;;;;3.50;2.20;;;25.80;59.90;;;;;;5035046;28;20435;-86
2023/07/21 11:44:23;;;;;;;7.60;2.07;;;25.60;62.00;;;;;;5037778;28;20544;-85
2023/07/21 11:46:58;;;;;;;5.63;2.37;;;25.40;60.00;;;;;;5032700;28;20524;-86
2023/07/21 11:49:25;;;;;;;8.97;2.23;;;25.00;60.60;;;;;;5040394;28;20440;-85
2023/07/21 11:51:52;;;;;;;2.43;2.20;;;25.00;62.90;;;;;;5035586;28;20459;-86
2023/07/21 11:54:25;;;;;;;3.67;2.30;;;24.80;62.50;;;;;;5037842;28;20513;-84
2023/07/21 11:56:53;;;;;;;7.83;2.27;;;26.30;66.20;;;;;;5033776;28;20982;-85
2023/07/21 11:59:19;;;;;;;3.73;2.43;;;24.50;65.10;;;;;;5034121;28;20447;-84
2023/07/21 12:01:46;;;;;;;2.80;1.90;;;24.50;65.80;;;;;;5032876;28;20497;-85
2023/07/21 12:04:11;;;;;;;6.10;2.67;;;24.30;65.30;;;;;;5033731;28;20459;-85
2023/07/21 12:06:38;;;;;;;3.10;2.10;;;24.10;64.50;;;;;;5037814;28;20443;-84
2023/07/21 12:09:09;;;;;;;7.97;2.30;;;23.90;65.50;;;;;;5040862;28;20177;-85
2023/07/21 12:11:35;;;;;;;2.83;2.37;;;23.80;66.60;;;;;;5034608;28;20432;-85
2023/07/21 12:14:03;;;;;;;4.20;2.53;;;23.70;67.00;;;;;;5040585;28;20447;-84
2023/07/21 12:16:29;;;;;;;43.73;6.13;;;24.10;68.50;;;;;;5041426;28;20499;-85
2023/07/21 12:18:56;;;;;;;6.40;2.07;;;24.20;68.20;;;;;;5041412;28;21574;-86
2023/07/21 12:21:23;;;;;;;29.17;4.93;;;24.20;69.30;;;;;;5040006;28;20443;-84
2023/07/21 12:23:48;;;;;;;38.70;6.23;;;24.30;67.90;;;;;;5044344;28;20450;-86
2023/07/21 12:26:14;;;;;;;52.50;9.70;;;24.30;68.70;;;;;;5040419;28;20455;-84
2023/07/21 12:28:41;;;;;;;11.77;3.70;;;24.00;68.00;;;;;;5038432;28;20599;-85
2023/07/21 12:31:06;;;;;;;110.77;14.70;;;23.50;69.00;;;;;;5039572;28;20193;-84
2023/07/21 12:33:34;;;;;;;5.47;2.60;;;23.60;71.90;;;;;;5042465;28;20454;-85
2023/07/21 12:36:00;;;;;;;4.00;2.90;;;23.70;71.90;;;;;;5035926;28;20213;-84
2023/07/21 12:38:26;;;;;;;23.57;3.60;;;23.30;72.30;;;;;;5038900;28;20895;-85
2023/07/21 12:40:52;;;;;;;24.17;4.90;;;22.80;73.30;;;;;;5039060;28;20185;-86
2023/07/21 12:43:18;;;;;;;56.53;10.30;;;22.30;74.70;;;;;;5036851;28;20228;-86
2023/07/21 12:45:43;;;;;;;18.33;3.83;;;22.70;76.60;;;;;;5034164;28;20552;-86